Time;durP1;ratioP1;P1;durP2;ratioP2;P2;SDS_P1;SDS_P2;PMS_P1;PMS_P2;Temp;Humidity;BMP_temperature;BMP_pressure;BME280_temperature;BME280_humidity;BME280_pressure;Samples;Min_cycle;Max_cycle;Signal;HPM_P1;HPM_P2
2023/02/12 00:01:38;;;;;;;50.10;28.90;;;;;;;1.98;47.47;100056.92;104569;1262;108760;-65
2023/02/12 00:04:06;;;;;;;51.20;30.40;;;;;;;2.00;51.54;100059.48;104635;1261;102659;-64
2023/02/12 00:06:34;;;;;;;54.40;31.30;;;;;;;2.02;52.10;100060.48;104565;1273;107888;-66
2023/02/12 00:09:02;;;;;;;49.50;29.20;;;;;;;2.04;49.05;100055.55;104573;1260;95365;-66
2023/02/12 00:11:30;;;;;;;45.90;26.20;;;;;;;2.06;52.02;100065.48;104551;1259;95963;-64
2023/02/12 00:13:58;;;;;;;46.60;27.10;;;;;;;2.08;50.28;100068.06;104686;1261;108239;-65
2023/02/12 00:16:27;;;;;;;46.00;25.50;;;;;;;2.10;50.68;100077.81;104652;1261;99652;-65
2023/02/12 00:18:57;;;;;;;41.00;23.80;;;;;;;2.13;52.06;100079.34;104633;1273;107693;-65
2023/02/12 00:21:25;;;;;;;36.60;21.00;;;;;;;2.15;53.65;100080.00;104505;1262;95300;-65
2023/02/12 00:23:53;;;;;;;43.70;26.10;;;;;;;2.17;53.49;100074.52;104645;1261;95759;-65
2023/02/12 00:26:22;;;;;;;44.60;24.40;;;;;;;2.19;54.70;100075.19;104534;1257;110394;-65
2023/02/12 00:28:51;;;;;;;47.00;28.00;;;;;;;2.21;53.65;100077.23;104586;1262;100711;-65
2023/02/12 00:31:27;;;;;;;48.80;29.70;;;;;;;2.22;54.95;100079.13;104484;1261;107658;-65
2023/02/12 00:33:58;;;;;;;42.60;24.80;;;;;;;2.22;55.92;100078.09;104674;1261;95254;-65
2023/02/12 00:36:29;;;;;;;45.00;25.50;;;;;;;2.22;54.78;100082.46;104511;1263;96890;-65
2023/02/12 00:38:57;;;;;;;36.50;20.40;;;;;;;2.23;54.35;100095.40;104599;1255;108242;-65
2023/02/12 00:41:26;;;;;;;35.70;20.20;;;;;;;2.25;57.99;100098.66;104808;1257;101052;-65
2023/02/12 00:43:53;;;;;;;43.60;22.10;;;;;;;2.27;59.83;100101.09;104726;1270;107616;-65
2023/02/12 00:46:22;;;;;;;36.40;21.50;;;;;;;2.27;57.12;100107.21;104631;1279;97810;-65
2023/02/12 00:48:50;;;;;;;43.50;23.70;;;;;;;2.29;58.26;100110.52;104702;1257;97186;-65
2023/02/12 00:51:18;;;;;;;42.50;26.40;;;;;;;2.30;56.69;100111.70;104805;1259;110462;-65
2023/02/12 00:53:46;;;;;;;36.60;20.30;;;;;;;2.29;57.12;100113.81;104718;1259;102495;-65
2023/02/12 00:56:14;;;;;;;36.10;19.50;;;;;;;2.31;60.34;100121.47;104801;1271;107687;-65
2023/02/12 00:58:43;;;;;;;37.20;19.10;;;;;;;2.30;56.83;100119.92;104789;1259;96644;-65
2023/02/12 01:01:10;;;;;;;36.30;17.90;;;;;;;2.29;54.32;100125.73;104852;1259;97449;-65
2023/02/12 01:03:39;;;;;;;35.20;19.30;;;;;;;2.29;59.44;100129.91;104686;1263;110653;-65
2023/02/12 01:06:07;;;;;;;35.30;17.70;;;;;;;2.29;55.44;100128.67;104685;1271;100845;-65
2023/02/12 01:08:34;;;;;;;33.20;17.00;;;;;;;2.29;58.50;100120.98;104687;1257;108036;-65
2023/02/12 01:11:05;;;;;;;34.10;16.80;;;;;;;2.28;56.78;100126.61;104730;1259;96623;-65
2023/02/12 01:13:34;;;;;;;32.00;16.90;;;;;;;2.28;57.19;100126.27;104603;1259;97116;-65
2023/02/12 01:16:14;;;;;;;32.00;17.50;;;;;;;2.26;57.26;100123.85;104608;1259;110805;-64
2023/02/12 01:18:42;;;;;;;32.10;17.40;;;;;;;2.24;54.80;100123.02;104534;1279;100728;-65
2023/02/12 01:21:16;;;;;;;31.40;17.20;;;;;;;2.25;57.84;100129.30;104730;1257;109142;-65
2023/02/12 01:23:45;;;;;;;30.80;16.20;;;;;;;2.24;56.38;100135.09;104684;1257;96597;-65
2023/02/12 01:26:16;;;;;;;29.40;16.20;;;;;;;2.24;55.90;100145.26;104711;1259;97090;-65
2023/02/12 01:28:49;;;;;;;31.70;16.90;;;;;;;2.25;56.92;100148.39;104657;1259;109471;-65
2023/02/12 01:31:21;;;;;;;29.60;16.30;;;;;;;2.25;56.78;100156.42;104584;1259;100939;-65
2023/02/12 01:33:52;;;;;;;33.60;17.00;;;;;;;2.26;57.11;100161.83;104784;1259;108569;-65
2023/02/12 01:36:20;;;;;;;35.10;19.10;;;;;;;2.26;54.99;100166.21;104729;1260;97958;-65
2023/02/12 01:38:49;;;;;;;35.90;18.90;;;;;;;2.25;53.87;100169.91;104825;1259;97837;-65
2023/02/12 01:41:23;;;;;;;35.90;21.30;;;;;;;2.24;54.26;100165.56;104600;1262;110860;-64
2023/02/12 01:44:10;;;;;;;;;;;;;;;2.25;53.53;100170.27;104821;1259;100851;-65
2023/02/12 01:46:39;;;;;;;38.20;20.70;;;;;;;2.22;53.36;100161.74;104539;1261;108207;-65
2023/02/12 01:49:14;;;;;;;53.30;33.70;;;;;;;2.21;53.96;100163.88;104737;1259;97903;-64
2023/02/12 01:51:45;;;;;;;47.40;27.10;;;;;;;2.20;53.32;100167.22;104694;1259;97154;-64
2023/02/12 01:54:16;;;;;;;41.90;21.60;;;;;;;2.19;55.92;100169.51;104764;1259;110009;-65
2023/02/12 01:56:45;;;;;;;42.70;21.90;;;;;;;2.19;53.78;100166.18;104745;1260;101845;-65
2023/02/12 01:59:13;;;;;;;40.70;20.00;;;;;;;2.17;54.37;100166.56;104748;1264;108298;-64
2023/02/12 02:01:40;;;;;;;35.30;18.30;;;;;;;2.17;54.90;100169.71;104773;1269;96607;-65
2023/02/12 02:04:16;;;;;;;36.80;19.80;;;;;;;2.17;55.81;100164.30;104672;1259;97963;-64
2023/02/12 02:07:03;;;;;;;36.70;20.50;;;;;;;2.17;54.58;100165.02;104667;1259;109098;-64
2023/02/12 02:09:35;;;;;;;37.80;20.30;;;;;;;2.15;53.40;100168.19;104792;1263;100601;-65
2023/02/12 02:14:53;;;;;;;37.60;21.30;;;;;;;2.17;54.01;100185.98;104531;1279;97912;-65
2023/02/12 02:17:59;;;;;;;34.00;18.90;;;;;;;2.18;55.16;100198.75;104870;1259;98162;-65
2023/02/12 02:21:03;;;;;;;35.00;19.00;;;;;;;2.18;55.75;100210.65;104741;1259;110108;-65
2023/02/12 02:23:50;;;;;;;36.40;20.30;;;;;;;2.18;55.14;100204.19;104870;1259;101520;-65
2023/02/12 02:26:42;;;;;;;37.70;23.20;;;;;;;2.17;53.98;100208.41;104700;1279;107355;-65
2023/02/12 02:29:42;;;;;;;34.40;19.40;;;;;;;2.15;54.11;100214.55;104783;1270;96617;-65
2023/02/12 02:32:28;;;;;;;34.60;17.70;;;;;;;2.14;55.10;100216.69;104618;1259;96694;-65
2023/02/12 02:35:26;;;;;;;29.30;16.20;;;;;;;2.12;53.36;100226.16;104649;1270;109932;-65
2023/02/12 02:38:22;;;;;;;30.70;16.60;;;;;;;2.12;55.41;100226.53;104582;1264;101344;-65
2023/02/12 02:41:00;;;;;;;29.20;15.20;;;;;;;2.13;53.76;100232.80;104775;1259;107633;-65
2023/02/12 02:43:35;;;;;;;31.00;16.50;;;;;;;2.13;55.87;100237.01;104582;1259;96627;-65
2023/02/12 02:46:13;;;;;;;28.00;14.50;;;;;;;2.12;54.64;100240.17;104575;1261;97118;-66
2023/02/12 02:48:47;;;;;;;29.60;15.20;;;;;;;2.11;55.55;100243.34;104871;1259;109855;-64
2023/02/12 02:51:21;;;;;;;33.70;16.30;;;;;;;2.12;56.27;100245.61;104740;1271;100854;-65
2023/02/12 02:54:10;;;;;;;28.00;15.50;;;;;;;2.11;55.88;100251.39;104737;1260;106608;-65
2023/02/12 02:56:41;;;;;;;31.20;15.80;;;;;;;2.12;55.64;100256.09;104680;1260;96626;-66
2023/02/12 02:59:19;;;;;;;34.00;18.20;;;;;;;2.11;54.92;100260.66;104563;1259;97048;-66
2023/02/12 03:01:57;;;;;;;36.60;18.70;;;;;;;2.11;55.74;100263.11;104514;1264;109262;-66
2023/02/12 03:04:32;;;;;;;30.40;16.20;;;;;;;2.11;56.99;100272.75;104638;1259;101170;-66
2023/02/12 03:07:12;;;;;;;33.30;17.50;;;;;;;2.11;56.06;100282.02;104666;1269;108549;-65
2023/02/12 03:09:48;;;;;;;39.60;21.00;;;;;;;2.12;54.10;100290.92;104870;1259;97567;-65
2023/02/12 03:12:33;;;;;;;40.90;21.20;;;;;;;2.11;53.56;100294.77;104878;1259;98278;-65
2023/02/12 03:15:08;;;;;;;37.40;18.90;;;;;;;2.14;54.01;100311.02;104771;1257;109038;-65
2023/02/12 03:17:48;;;;;;;37.30;17.50;;;;;;;2.14;53.19;100317.13;104714;1269;99697;-65
2023/02/12 03:20:20;;;;;;;27.60;13.50;;;;;;;2.16;53.33;100319.02;104545;1267;108124;-65
2023/02/12 03:22:57;;;;;;;29.00;14.50;;;;;;;2.17;52.90;100317.44;104723;1269;97948;-65
2023/02/12 03:25:39;;;;;;;34.70;15.10;;;;;;;2.17;53.15;100320.58;104618;1260;97102;-65
2023/02/12 03:28:19;;;;;;;27.10;13.00;;;;;;;2.17;53.00;100320.59;104663;1269;110545;-65
2023/02/12 03:30:51;;;;;;;29.90;13.50;;;;;;;2.17;52.75;100329.34;104593;1263;100637;-65
2023/02/12 03:33:53;;;;;;;27.60;13.60;;;;;;;2.16;52.70;100337.94;104733;1267;107631;-65
2023/02/12 03:36:45;;;;;;;28.10;13.50;;;;;;;2.14;53.68;100344.26;104605;1260;96640;-66
2023/02/12 03:39:32;;;;;;;32.40;16.80;;;;;;;2.12;53.58;100353.21;104697;1260;97029;-65
2023/02/12 03:42:06;;;;;;;31.30;15.10;;;;;;;2.13;53.18;100355.64;104636;1260;109909;-65
2023/02/12 03:44:52;;;;;;;;;;;;;;;2.14;53.17;100360.36;104681;1260;101272;-65
2023/02/12 03:47:37;;;;;;;28.50;13.30;;;;;;;2.13;53.15;100377.70;104673;1262;108151;-65
2023/02/12 03:50:37;;;;;;;30.80;13.60;;;;;;;2.14;53.03;100384.16;104491;1262;97557;-64
2023/02/12 03:53:06;;;;;;;21.40;8.30;;;;;;;2.16;53.71;100412.30;104783;1269;97103;-64
2023/02/12 03:55:37;;;;;;;15.70;5.10;;;;;;;2.09;54.74;100426.41;104869;1260;109450;-65
2023/02/12 03:58:09;;;;;;;13.70;5.10;;;;;;;1.93;55.72;100432.45;104806;1271;101631;-65
2023/02/12 04:00:38;;;;;;;12.80;4.40;;;;;;;1.77;54.69;100435.64;104691;1260;107498;-65
2023/02/12 04:03:06;;;;;;;10.90;4.40;;;;;;;1.67;55.02;100439.11;104702;1259;96696;-64
2023/02/12 04:05:34;;;;;;;11.50;4.30;;;;;;;1.58;55.53;100447.46;104815;1260;97103;-64
2023/02/12 04:08:06;;;;;;;10.60;3.90;;;;;;;1.48;55.87;100448.44;104898;1260;110528;-64
2023/02/12 04:11:19;;;;;;;13.60;4.50;;;;;;;1.34;54.98;100450.04;104717;1269;100595;-65
2023/02/12 04:13:54;;;;;;;13.50;4.10;;;;;;;1.21;55.21;100456.31;104527;1263;107193;-64
2023/02/12 04:16:30;;;;;;;12.10;4.70;;;;;;;1.15;55.09;100464.94;104630;1269;96711;-65
2023/02/12 04:19:00;;;;;;;13.40;4.10;;;;;;;1.12;55.14;100473.16;104692;1267;97387;-64
2023/02/12 04:22:04;;;;;;;8.70;3.40;;;;;;;1.11;54.69;100485.41;104716;1263;110447;-64
2023/02/12 04:24:37;;;;;;;10.60;4.40;;;;;;;1.10;55.67;100492.42;104770;1259;100877;-64
2023/02/12 04:27:28;;;;;;;13.00;4.20;;;;;;;1.08;54.96;100493.14;104724;1259;108403;-64
2023/02/12 04:30:17;;;;;;;10.60;4.30;;;;;;;1.07;55.42;100499.61;104575;1260;96621;-65
2023/02/12 04:33:08;;;;;;;10.50;3.50;;;;;;;1.03;55.51;100509.77;104812;1260;98273;-65
2023/02/12 04:35:50;;;;;;;11.40;3.80;;;;;;;1.01;55.58;100523.25;104789;1265;109748;-65
2023/02/12 04:38:24;;;;;;;10.60;4.00;;;;;;;0.98;55.33;100520.32;104634;1270;100841;-65
2023/02/12 04:40:52;;;;;;;12.50;3.90;;;;;;;0.96;55.61;100526.10;104752;1270;109239;-65
2023/02/12 04:43:35;;;;;;;8.20;3.60;;;;;;;0.94;55.33;100529.80;104794;1262;96614;-65
2023/02/12 04:46:06;;;;;;;8.70;3.40;;;;;;;0.92;55.58;100546.06;104536;1262;97919;-65
2023/02/12 04:48:49;;;;;;;12.00;4.30;;;;;;;0.89;55.63;100548.70;104575;1261;109918;-65
2023/02/12 04:51:17;;;;;;;14.50;5.30;;;;;;;0.87;55.20;100541.73;104773;1270;100701;-65
2023/02/12 04:53:45;;;;;;;14.10;4.90;;;;;;;0.86;55.31;100554.48;104701;1261;108247;-65
2023/02/12 04:56:14;;;;;;;10.60;4.00;;;;;;;0.83;55.15;100558.01;104770;1260;96712;-65
2023/02/12 04:58:42;;;;;;;8.90;3.80;;;;;;;0.81;55.29;100545.45;104643;1270;97173;-65
2023/02/12 05:01:11;;;;;;;13.10;4.60;;;;;;;0.79;55.16;100551.94;104799;1259;109760;-65
2023/02/12 05:03:39;;;;;;;11.80;4.20;;;;;;;0.78;55.17;100570.46;104829;1270;100731;-65
2023/02/12 05:06:08;;;;;;;13.70;4.90;;;;;;;0.77;55.19;100561.04;104761;1261;107988;-65
2023/02/12 05:08:36;;;;;;;12.30;5.10;;;;;;;0.77;55.04;100569.07;104670;1266;97926;-65
2023/02/12 05:11:09;;;;;;;10.40;4.10;;;;;;;0.77;55.21;100572.73;104734;1260;97127;-65
2023/02/12 05:13:37;;;;;;;11.90;4.10;;;;;;;0.75;55.29;100569.25;104832;1260;109481;-65
2023/02/12 05:16:07;;;;;;;14.80;5.30;;;;;;;0.74;55.46;100573.09;104621;1260;101167;-65
2023/02/12 05:18:35;;;;;;;14.80;4.80;;;;;;;0.73;54.91;100575.02;104760;1261;107589;-65
2023/02/12 05:21:04;;;;;;;14.20;4.80;;;;;;;0.73;55.21;100587.60;104775;1277;98203;-65
2023/02/12 05:23:35;;;;;;;19.10;7.90;;;;;;;0.72;54.90;100590.41;104803;1259;97122;-65
2023/02/12 05:26:07;;;;;;;19.60;6.60;;;;;;;0.69;55.30;100600.90;104728;1260;110084;-65
2023/02/12 05:28:35;;;;;;;13.60;5.60;;;;;;;0.68;55.15;100604.23;104654;1260;100396;-65
2023/02/12 05:31:07;;;;;;;13.30;4.80;;;;;;;0.66;55.35;100612.97;104818;1261;107659;-65
2023/02/12 05:33:35;;;;;;;18.80;5.80;;;;;;;0.63;55.28;100620.14;104889;1260;96693;-65
2023/02/12 05:36:09;;;;;;;13.10;5.80;;;;;;;0.61;55.26;100619.48;104853;1260;97115;-65
2023/02/12 05:38:37;;;;;;;12.70;5.20;;;;;;;0.58;55.16;100625.08;104691;1257;109696;-65
2023/02/12 05:41:15;;;;;;;12.50;4.80;;;;;;;0.56;55.24;100632.06;104771;1275;100557;-65
2023/02/12 05:43:43;;;;;;;13.80;4.50;;;;;;;0.54;55.52;100642.55;104647;1259;108005;-65
2023/02/12 05:46:14;;;;;;;13.10;4.70;;;;;;;0.52;55.30;100642.39;104667;1260;96785;-65
2023/02/12 05:48:43;;;;;;;14.40;4.80;;;;;;;0.51;56.16;100652.00;104682;1260;98283;-65
2023/02/12 05:51:14;;;;;;;14.80;4.90;;;;;;;0.48;55.60;100654.98;104735;1259;109866;-65
2023/02/12 05:53:42;;;;;;;11.80;4.10;;;;;;;0.48;55.41;100669.29;104756;1270;99259;-65
2023/02/12 05:56:15;;;;;;;23.40;11.00;;;;;;;0.48;55.72;100675.23;104763;1260;108158;-65
2023/02/12 05:58:46;;;;;;;21.70;9.30;;;;;;;0.48;55.81;100681.86;104768;1270;96609;-65
2023/02/12 06:01:21;;;;;;;17.20;6.10;;;;;;;0.48;55.91;100692.86;104696;1259;97220;-65
2023/02/12 06:03:49;;;;;;;11.80;4.70;;;;;;;0.47;55.86;100698.63;104515;1270;111811;-65
2023/02/12 06:06:17;;;;;;;11.50;4.90;;;;;;;0.45;55.98;100698.98;104744;1267;100515;-65
2023/02/12 06:08:49;;;;;;;15.10;5.00;;;;;;;0.44;55.98;100701.95;104727;1270;108232;-65
2023/02/12 06:11:19;;;;;;;15.00;5.00;;;;;;;0.43;56.31;100707.73;104774;1279;96623;-65
2023/02/12 06:13:48;;;;;;;12.90;4.40;;;;;;;0.41;55.78;100709.11;104832;1270;98467;-65
2023/02/12 06:16:22;;;;;;;12.60;5.10;;;;;;;0.41;55.88;100715.05;104782;1260;110451;-65
2023/02/12 06:18:52;;;;;;;18.80;5.70;;;;;;;0.42;56.18;100722.73;104607;1261;101477;-65
2023/02/12 06:21:23;;;;;;;14.20;4.90;;;;;;;0.42;56.36;100723.60;104706;1273;107488;-65
2023/02/12 06:23:52;;;;;;;14.60;4.50;;;;;;;0.42;56.12;100732.33;108455;1257;94599;-65
2023/02/12 06:26:20;;;;;;;14.50;4.90;;;;;;;0.43;56.08;100741.40;108432;1257;94363;-66
2023/02/12 06:28:49;;;;;;;12.40;4.70;;;;;;;0.43;56.18;100752.40;108476;1257;109877;-65
2023/02/12 06:31:20;;;;;;;16.50;5.10;;;;;;;0.45;56.12;100756.94;106799;1257;102347;-66
2023/02/12 06:33:50;;;;;;;13.90;5.80;;;;;;;0.48;56.22;100761.45;104618;1257;107688;-65
2023/02/12 06:36:18;;;;;;;14.80;4.70;;;;;;;0.50;56.21;100762.15;104622;1258;98022;-65
2023/02/12 06:38:47;;;;;;;11.60;4.40;;;;;;;0.53;56.09;100762.66;104701;1260;97086;-65
2023/02/12 06:41:15;;;;;;;12.70;3.80;;;;;;;0.55;56.42;100763.53;108484;1259;109869;-66
2023/02/12 06:43:43;;;;;;;7.40;3.40;;;;;;;0.54;56.37;100776.45;104840;1259;100200;-65
2023/02/12 06:46:12;;;;;;;10.70;4.20;;;;;;;0.53;56.26;100775.41;108424;1258;107923;-66
2023/02/12 06:48:41;;;;;;;14.60;5.00;;;;;;;0.54;56.52;100787.80;108466;1257;94234;-66
2023/02/12 06:51:11;;;;;;;13.50;4.20;;;;;;;0.55;56.21;100793.55;108472;1256;94498;-66
2023/02/12 06:53:40;;;;;;;11.10;3.90;;;;;;;0.58;56.27;100790.92;107154;1257;109652;-65
2023/02/12 06:56:10;;;;;;;9.10;3.80;;;;;;;0.62;56.34;100791.61;104698;1270;100701;-67
2023/02/12 06:58:40;;;;;;;9.30;3.90;;;;;;;0.63;56.49;100799.10;104735;1259;108107;-66
2023/02/12 07:01:20;;;;;;;10.90;4.10;;;;;;;0.64;56.46;100802.24;104925;1260;96603;-66
2023/02/12 07:03:55;;;;;;;12.70;4.50;;;;;;;0.66;56.43;100794.55;104701;1259;97125;-66
2023/02/12 07:06:24;;;;;;;8.90;4.00;;;;;;;0.68;56.45;100802.58;104534;1271;109666;-67
2023/02/12 07:08:53;;;;;;;11.20;4.00;;;;;;;0.68;56.35;100808.34;104376;1260;100861;-68
2023/02/12 07:11:28;;;;;;;10.80;4.20;;;;;;;0.69;56.31;100811.30;105310;1261;107356;-68
2023/02/12 07:13:56;;;;;;;9.60;4.30;;;;;;;0.70;56.65;100817.08;104603;1260;97515;-68
2023/02/12 07:16:25;;;;;;;12.40;4.50;;;;;;;0.71;56.54;100822.13;104784;1260;97323;-68
2023/02/12 07:18:54;;;;;;;9.60;3.70;;;;;;;0.74;56.35;100822.11;108357;1257;112217;-68
2023/02/12 07:21:22;;;;;;;12.40;3.90;;;;;;;0.77;56.28;100827.88;108489;1257;100561;-67
2023/02/12 07:23:51;;;;;;;15.00;4.80;;;;;;;0.77;56.31;100827.00;108470;1257;107941;-66
2023/02/12 07:26:21;;;;;;;14.00;4.90;;;;;;;0.79;56.33;100825.08;108463;1256;94371;-67
2023/02/12 07:28:50;;;;;;;11.60;3.90;;;;;;;0.82;56.38;100821.21;108449;1256;94472;-67
2023/02/12 07:31:22;;;;;;;45.20;17.40;;;;;;;0.87;56.50;100821.70;106583;1257;109712;-66
2023/02/12 07:33:55;;;;;;;20.70;7.80;;;;;;;0.94;56.55;100823.59;106827;1258;101663;-67
2023/02/12 07:36:25;;;;;;;11.80;4.60;;;;;;;0.97;56.28;100822.02;104490;1261;106623;-66
2023/02/12 07:38:54;;;;;;;12.80;4.70;;;;;;;0.97;56.33;100823.06;104606;1261;96705;-65
2023/02/12 07:41:28;;;;;;;24.50;9.50;;;;;;;0.99;56.66;100825.52;104746;1260;97432;-66
2023/02/12 07:44:06;;;;;;;32.50;14.90;;;;;;;1.00;56.72;100823.92;104594;1256;108934;-65
2023/02/12 07:46:37;;;;;;;22.90;8.30;;;;;;;1.02;56.41;100822.85;104930;1257;100527;-65
2023/02/12 07:49:07;;;;;;;31.20;15.20;;;;;;;1.04;56.51;100826.52;105408;1258;107100;-66
2023/02/12 07:51:36;;;;;;;27.10;10.80;;;;;;;1.08;56.58;100831.22;105470;1256;96632;-66
2023/02/12 07:54:04;;;;;;;33.40;14.20;;;;;;;1.10;56.47;100834.71;104543;1257;97120;-66
2023/02/12 07:56:36;;;;;;;15.50;5.10;;;;;;;1.13;56.43;100832.41;104540;1259;110401;-66
2023/02/12 07:59:07;;;;;;;13.70;4.90;;;;;;;1.17;56.39;100833.09;105380;1260;99553;-66
2023/02/12 08:01:37;;;;;;;42.90;13.20;;;;;;;1.20;56.27;100836.93;104715;1267;106968;-67
2023/02/12 08:04:12;;;;;;;12.40;4.50;;;;;;;1.18;56.39;100837.64;104642;1260;96622;-67
2023/02/12 08:06:43;;;;;;;9.70;4.30;;;;;;;1.18;56.46;100840.26;108458;1257;94771;-67
2023/02/12 08:09:14;;;;;;;7.70;3.90;;;;;;;1.18;56.33;100844.28;108481;1256;109879;-67
2023/02/12 08:11:42;;;;;;;5.80;3.50;;;;;;;1.21;56.49;100849.50;108445;1256;100853;-68
2023/02/12 08:14:13;;;;;;;8.80;4.00;;;;;;;1.26;56.42;100854.71;108322;1257;108010;-68
2023/02/12 08:16:43;;;;;;;12.70;5.70;;;;;;;1.28;56.59;100860.64;108471;1256;94668;-67
2023/02/12 08:19:11;;;;;;;11.20;5.50;;;;;;;1.29;56.56;100857.31;107818;1257;94778;-66
2023/02/12 08:21:50;;;;;;;12.40;5.60;;;;;;;1.28;56.46;100853.83;104499;1260;109907;-66
2023/02/12 08:24:18;;;;;;;19.80;8.10;;;;;;;1.32;56.59;100854.15;104476;1259;100651;-67
2023/02/12 08:26:47;;;;;;;11.10;4.90;;;;;;;1.34;56.55;100859.91;108408;1256;107544;-67
2023/02/12 08:29:18;;;;;;;11.70;5.00;;;;;;;1.38;56.47;100863.21;108414;1256;94667;-67
2023/02/12 08:31:48;;;;;;;27.90;11.20;;;;;;;1.43;56.48;100867.02;108471;1256;94530;-67
2023/02/12 08:34:29;;;;;;;48.20;19.60;;;;;;;1.48;56.43;100873.81;108445;1256;109697;-67
2023/02/12 08:36:57;;;;;;;60.40;27.70;;;;;;;1.53;56.39;100878.68;104856;1257;101081;-66
2023/02/12 08:39:27;;;;;;;33.20;12.30;;;;;;;1.55;56.38;100875.34;104631;1261;107122;-67
2023/02/12 08:41:57;;;;;;;21.00;7.00;;;;;;;1.59;56.39;100879.34;104640;1261;97802;-66
2023/02/12 08:44:25;;;;;;;43.80;19.50;;;;;;;1.63;56.51;100877.21;104766;1256;98113;-66
2023/02/12 08:46:54;;;;;;;81.60;39.60;;;;;;;1.64;56.53;100883.48;104678;1259;142573;-67
2023/02/12 08:49:25;;;;;;;84.50;37.00;;;;;;;1.68;56.53;100882.43;104326;1261;101435;-68
2023/02/12 08:51:56;;;;;;;31.20;11.10;;;;;;;1.70;56.88;100884.86;104626;1271;106576;-66
2023/02/12 08:54:26;;;;;;;44.20;16.60;;;;;;;1.63;56.48;100888.23;104567;1261;96668;-66
2023/02/12 08:56:57;;;;;;;48.70;20.10;;;;;;;1.61;56.47;100888.08;104780;1259;97077;-66
2023/02/12 08:59:25;;;;;;;48.80;17.30;;;;;;;1.65;56.42;100895.39;104589;1256;110679;-66
2023/02/12 09:01:54;;;;;;;34.20;12.00;;;;;;;1.63;56.45;100896.27;104697;1259;101094;-66
2023/02/12 09:04:24;;;;;;;29.10;10.70;;;;;;;1.63;56.75;100897.50;104748;1260;108158;-67
2023/02/12 09:06:53;;;;;;;30.10;11.80;;;;;;;1.60;56.55;100896.66;104592;1259;96691;-66
2023/02/12 09:09:21;;;;;;;59.50;29.30;;;;;;;1.63;56.20;100905.36;104764;1260;96651;-66
2023/02/12 09:11:49;;;;;;;24.00;9.40;;;;;;;1.70;56.56;100912.33;104721;1257;109344;-66
2023/02/12 09:14:22;;;;;;;45.20;20.60;;;;;;;1.75;56.62;100915.27;104613;1260;101778;-67
2023/02/12 09:16:52;;;;;;;23.50;8.50;;;;;;;1.81;56.51;100916.11;104553;1270;107675;-65
2023/02/12 09:19:20;;;;;;;25.10;10.00;;;;;;;1.82;56.40;100918.90;104749;1270;96728;-66
2023/02/12 09:21:53;;;;;;;29.80;11.60;;;;;;;1.90;56.43;100920.75;104723;1256;97518;-66
2023/02/12 09:24:26;;;;;;;20.00;7.00;;;;;;;1.97;56.55;100926.49;104581;1257;111081;-66
2023/02/12 09:26:55;;;;;;;9.20;4.00;;;;;;;2.03;56.50;100927.49;104621;1260;100905;-66
2023/02/12 09:29:23;;;;;;;10.10;3.90;;;;;;;2.08;56.52;100931.30;104707;1257;109418;-66
2023/02/12 09:31:51;;;;;;;6.40;3.40;;;;;;;2.12;56.32;100937.39;104734;1256;97485;-66
2023/02/12 09:34:19;;;;;;;24.90;11.80;;;;;;;2.15;56.34;100942.63;104706;1260;96720;-66
2023/02/12 09:36:47;;;;;;;17.80;8.50;;;;;;;2.14;56.34;100938.62;104563;1260;110811;-66
2023/02/12 09:39:16;;;;;;;15.00;5.40;;;;;;;2.18;56.23;100932.27;104544;1270;100772;-66
2023/02/12 09:42:27;;;;;;;25.50;10.70;;;;;;;2.28;56.33;100933.94;104569;1270;107650;-67
2023/02/12 09:45:19;;;;;;;29.90;11.10;;;;;;;2.33;56.41;100939.69;104402;1271;96695;-66
2023/02/12 09:48:10;;;;;;;22.30;7.70;;;;;;;2.34;56.60;100948.95;104845;1260;97095;-68
2023/02/12 09:50:50;;;;;;;17.70;6.90;;;;;;;2.37;56.30;100955.40;104623;1256;110329;-68
2023/02/12 09:53:23;;;;;;;25.80;12.50;;;;;;;2.38;56.42;100951.02;104500;1259;100420;-68
2023/02/12 09:55:51;;;;;;;24.70;10.60;;;;;;;2.43;56.32;100945.91;108445;1255;106636;-68
2023/02/12 09:58:23;;;;;;;21.20;6.70;;;;;;;2.47;55.99;100947.78;108462;1255;94264;-69
2023/02/12 10:00:51;;;;;;;26.80;9.30;;;;;;;2.46;56.00;100943.95;105283;1259;96904;-67
2023/02/12 10:03:21;;;;;;;21.50;8.20;;;;;;;2.50;55.91;100948.46;104670;1259;110782;-67
2023/02/12 10:06:04;;;;;;;14.60;5.40;;;;;;;2.56;56.30;100951.55;104707;1273;99593;-67
2023/02/12 10:09:03;;;;;;;12.20;4.90;;;;;;;2.56;56.06;100952.44;104723;1261;107954;-68
2023/02/12 10:12:02;;;;;;;20.00;7.20;;;;;;;2.54;56.04;100944.91;104628;1260;96622;-69
2023/02/12 10:15:11;;;;;;;20.90;7.70;;;;;;;2.55;56.08;100946.48;104541;1256;97137;-68
2023/02/12 10:17:50;;;;;;;19.30;9.40;;;;;;;2.49;56.07;100958.09;104550;1261;108929;-69
2023/02/12 10:20:49;;;;;;;16.80;7.40;;;;;;;2.40;56.37;100959.24;104676;1272;100900;-68
2023/02/12 10:23:17;;;;;;;12.70;5.30;;;;;;;2.36;56.15;100954.88;104500;1257;108258;-69
2023/02/12 10:25:58;;;;;;;14.40;5.80;;;;;;;2.34;56.28;100956.30;104574;1263;96610;-69
2023/02/12 10:28:37;;;;;;;18.60;8.00;;;;;;;2.34;56.39;100960.34;104716;1256;97170;-68
2023/02/12 10:31:14;;;;;;;16.90;6.30;;;;;;;2.34;56.23;100964.52;104619;1256;110447;-68
2023/02/12 10:33:48;;;;;;;11.50;6.50;;;;;;;2.31;56.25;100965.79;105602;1256;101762;-72
2023/02/12 10:36:30;;;;;;;12.80;5.20;;;;;;;2.33;55.77;100973.30;108466;1256;107729;-67
2023/02/12 10:39:13;;;;;;;19.90;7.60;;;;;;;2.45;55.97;100974.07;108447;1255;94350;-67
2023/02/12 10:41:46;;;;;;;21.60;9.30;;;;;;;2.58;56.11;100977.11;105075;1260;97192;-69
2023/02/12 10:44:14;;;;;;;18.10;6.50;;;;;;;2.68;55.79;100980.52;104790;1256;108034;-68
2023/02/12 10:46:43;;;;;;;19.60;9.50;;;;;;;2.74;55.93;100984.84;104521;1257;101206;-69
2023/02/12 10:49:14;;;;;;;33.60;14.80;;;;;;;2.74;55.78;100983.62;104831;1259;107161;-68
2023/02/12 10:51:55;;;;;;;31.80;14.80;;;;;;;2.74;55.76;100978.72;104791;1265;97846;-69
2023/02/12 10:54:44;;;;;;;24.90;12.00;;;;;;;2.73;55.66;100982.58;104805;1259;97131;-67
2023/02/12 10:57:16;;;;;;;55.00;23.50;;;;;;;2.75;55.74;100983.96;104456;1270;109429;-69
2023/02/12 10:59:47;;;;;;;62.10;27.60;;;;;;;2.74;55.73;100983.98;104615;1256;99768;-68
2023/02/12 11:02:18;;;;;;;59.50;28.10;;;;;;;2.74;55.62;100980.98;104586;1272;107066;-68
2023/02/12 11:04:46;;;;;;;36.60;14.60;;;;;;;2.72;55.44;100980.83;104648;1271;96613;-68
2023/02/12 11:07:15;;;;;;;19.00;7.40;;;;;;;2.80;55.87;100978.30;104699;1259;97122;-69
2023/02/12 11:09:49;;;;;;;52.60;22.30;;;;;;;2.97;55.86;100984.98;104802;1259;110014;-68
2023/02/12 11:12:36;;;;;;;40.00;16.90;;;;;;;3.07;55.96;100988.89;104586;1262;100525;-67
2023/02/12 11:15:15;;;;;;;26.10;12.00;;;;;;;3.16;55.91;100985.48;104541;1257;108299;-68
2023/02/12 11:17:54;;;;;;;22.10;10.10;;;;;;;3.24;55.99;100983.09;104542;1259;96706;-67
2023/02/12 11:20:57;;;;;;;38.00;17.60;;;;;;;3.24;55.25;100979.07;104632;1256;96696;-68
2023/02/12 11:23:25;;;;;;;18.80;7.40;;;;;;;3.13;55.70;100987.60;104647;1260;109800;-68
2023/02/12 11:26:04;;;;;;;37.00;16.90;;;;;;;3.13;55.73;100988.99;104619;1259;100678;-67
2023/02/12 11:28:35;;;;;;;24.90;10.90;;;;;;;3.17;55.48;100988.09;104463;1260;105392;-68
2023/02/12 11:31:21;;;;;;;25.40;9.50;;;;;;;3.14;55.57;100983.73;104582;1259;96619;-69
2023/02/12 11:34:09;;;;;;;18.60;7.60;;;;;;;3.10;55.46;100984.13;106626;1259;96525;-69
2023/02/12 11:36:42;;;;;;;30.40;14.70;;;;;;;3.15;55.52;100975.66;104570;1258;109577;-68
2023/02/12 11:39:21;;;;;;;17.60;6.80;;;;;;;3.23;55.52;100974.00;104472;1261;99643;-68
2023/02/12 11:41:56;;;;;;;24.70;11.20;;;;;;;3.23;55.65;100978.03;108323;1256;106749;-68
2023/02/12 11:44:28;;;;;;;21.90;8.70;;;;;;;3.25;55.59;100977.30;107288;1258;97556;-68